createdAt,value
2018-12-05T00:05:42.764Z,14.37
2018-12-05T00:09:48.828Z,14.60
2018-12-05T00:13:55.708Z,9.10
2018-12-05T00:18:02.734Z,10.18
2018-12-05T00:22:09.350Z,12.75
2018-12-05T00:26:15.879Z,15.50
2018-12-05T00:30:23.391Z,12.40
2018-12-05T00:34:30.892Z,18.80
2018-12-05T00:38:38.227Z,210.83
2018-12-05T00:42:44.864Z,428.03
2018-12-05T00:46:51.344Z,158.93
2018-12-05T00:50:57.551Z,148.38
2018-12-05T00:55:03.718Z,164.87
2018-12-05T00:59:10.187Z,154.27
2018-12-05T01:03:17.276Z,133.37
2018-12-05T01:07:24.131Z,113.83
2018-12-05T01:11:31.298Z,109.00
2018-12-05T01:15:38.629Z,103.53
2018-12-05T01:19:45.054Z,100.27
2018-12-05T01:23:51.711Z,99.73
2018-12-05T01:27:59.235Z,99.43
2018-12-05T01:32:05.753Z,89.20
2018-12-05T01:36:12.167Z,79.37
2018-12-05T01:40:18.628Z,74.63
2018-12-05T01:44:25.247Z,76.12
2018-12-05T01:48:32.195Z,69.20
2018-12-05T01:52:39.129Z,71.00
2018-12-05T01:56:46.271Z,67.30
2018-12-05T02:00:53.176Z,68.70
2018-12-05T02:05:00.204Z,62.93
2018-12-05T02:09:06.782Z,62.63
2018-12-05T02:13:13.836Z,57.23
2018-12-05T02:17:20.589Z,53.90
2018-12-05T02:21:28.608Z,54.85
2018-12-05T02:25:34.944Z,53.80
2018-12-05T02:29:46.104Z,50.87
2018-12-05T02:33:53.384Z,52.33
2018-12-05T02:38:00.137Z,46.40
2018-12-05T02:42:07.072Z,46.63
2018-12-05T02:46:14.485Z,45.00
2018-12-05T02:50:21.252Z,41.73
2018-12-05T02:54:31.320Z,41.33
2018-12-05T02:58:38.056Z,40.50
2018-12-05T03:02:45.063Z,37.27
2018-12-05T03:06:51.798Z,37.97
2018-12-05T03:10:58.927Z,37.17
2018-12-05T03:15:05.491Z,33.77
2018-12-05T03:19:12.486Z,33.80
2018-12-05T03:23:18.799Z,30.70
2018-12-05T03:27:25.095Z,30.10
2018-12-05T03:31:31.417Z,30.15
2018-12-05T03:35:41.870Z,29.20
2018-12-05T03:39:49.746Z,26.87
2018-12-05T03:43:56.583Z,28.20
2018-12-05T03:48:03.316Z,26.37
2018-12-05T03:52:10.039Z,24.60
2018-12-05T03:56:16.518Z,26.27
2018-12-05T04:00:23.806Z,25.33
2018-12-05T04:04:30.657Z,23.27
2018-12-05T04:08:36.819Z,24.43
2018-12-05T04:12:44.100Z,22.60
2018-12-05T04:16:51.056Z,22.45
2018-12-05T04:20:58.130Z,20.43
2018-12-05T04:25:05.422Z,20.40
2018-12-05T04:29:11.969Z,17.90
2018-12-05T04:33:18.991Z,18.50
2018-12-05T04:37:25.475Z,18.20
2018-12-05T04:41:32.277Z,18.90
2018-12-05T04:45:39.107Z,18.37
2018-12-05T04:49:45.800Z,18.48
2018-12-05T04:53:52.432Z,16.60
2018-12-05T04:57:59.215Z,15.60
2018-12-05T05:02:07.127Z,16.00
2018-12-05T05:06:14.338Z,16.10
2018-12-05T05:10:20.786Z,15.93
2018-12-05T05:14:28.281Z,14.13
2018-12-05T05:18:35.693Z,14.30
2018-12-05T05:22:43.086Z,13.60
2018-12-05T05:26:50.722Z,14.30
2018-12-05T05:30:58.303Z,14.47
2018-12-05T05:35:06.477Z,13.62
2018-12-05T05:39:14.654Z,15.07
2018-12-05T05:43:21.836Z,13.40
2018-12-05T05:47:29.408Z,12.80
2018-12-05T05:51:37.078Z,12.73
2018-12-05T05:55:44.602Z,12.20
2018-12-05T05:59:52.141Z,12.17
2018-12-05T06:03:59.603Z,11.33
2018-12-05T06:08:07.317Z,10.80
2018-12-05T06:12:15.308Z,11.37
2018-12-05T06:16:23.247Z,11.23
2018-12-05T06:20:30.489Z,10.83
2018-12-05T06:24:38.034Z,10.17
2018-12-05T06:28:45.274Z,10.40
2018-12-05T06:32:52.563Z,10.27
2018-12-05T06:36:59.910Z,9.30
2018-12-05T06:41:07.462Z,9.80
2018-12-05T06:45:14.766Z,9.40
2018-12-05T06:49:22.204Z,9.67
2018-12-05T06:53:30.017Z,9.77
2018-12-05T06:57:37.688Z,9.30
2018-12-05T07:01:45.161Z,8.50
2018-12-05T07:05:52.653Z,8.43
2018-12-05T07:10:00.291Z,8.20
2018-12-05T07:14:07.796Z,9.30
2018-12-05T07:18:15.844Z,8.43
2018-12-05T07:22:23.632Z,8.70
2018-12-05T07:26:31.473Z,8.43
2018-12-05T07:30:39.101Z,8.55
2018-12-05T07:34:46.774Z,8.80
2018-12-05T07:38:54.431Z,7.90
2018-12-05T07:43:01.902Z,8.00
2018-12-05T07:47:09.651Z,7.53
2018-12-05T07:51:17.187Z,7.00
2018-12-05T07:55:24.340Z,7.37
2018-12-05T07:59:33.057Z,6.70
2018-12-05T08:03:40.399Z,7.47
2018-12-05T08:07:48.110Z,7.12
2018-12-05T08:11:56.024Z,5.90
2018-12-05T08:16:03.516Z,7.20
2018-12-05T08:20:11.187Z,6.60
2018-12-05T08:24:18.754Z,7.40
2018-12-05T08:28:26.537Z,7.20
2018-12-05T08:32:34.232Z,6.00
2018-12-05T08:36:41.845Z,7.93
2018-12-05T08:40:49.531Z,7.87
2018-12-05T08:44:57.801Z,9.73
2018-12-05T08:49:05.841Z,9.30
2018-12-05T08:53:13.925Z,13.03
2018-12-05T08:57:21.454Z,12.20
2018-12-05T09:01:28.974Z,11.63
2018-12-05T09:05:36.264Z,12.00
2018-12-05T09:09:43.898Z,13.53
2018-12-05T09:13:51.358Z,12.10
2018-12-05T09:17:59.057Z,12.57
2018-12-05T09:22:06.365Z,11.50
2018-12-05T09:26:13.721Z,10.10
2018-12-05T09:35:32.951Z,10.60
2018-12-05T09:39:41.035Z,11.08
2018-12-05T09:43:48.787Z,8.60
2018-12-05T09:47:57.800Z,9.20
2018-12-05T09:52:04.867Z,8.23
2018-12-05T09:56:12.691Z,9.48
2018-12-05T10:00:20.474Z,8.45
2018-12-05T10:04:28.088Z,8.57
2018-12-05T10:08:35.794Z,7.97
2018-12-05T10:13:13.495Z,8.35
2018-12-05T10:17:20.973Z,8.20
2018-12-05T10:21:29.441Z,7.60
2018-12-05T10:25:37.061Z,8.57
2018-12-05T10:29:43.751Z,7.10
2018-12-05T10:33:50.443Z,8.17
2018-12-05T10:37:57.259Z,8.30
2018-12-05T10:42:03.858Z,7.57
2018-12-05T10:46:11.013Z,7.83
2018-12-05T10:50:17.663Z,11.20
2018-12-05T10:54:24.557Z,6.60
2018-12-05T10:58:31.483Z,5.80
2018-12-05T11:02:42.779Z,6.53
2018-12-05T11:06:53.263Z,6.12
2018-12-05T11:11:04.251Z,6.90
2018-12-05T11:15:14.309Z,7.23
2018-12-05T11:19:24.858Z,7.53
2018-12-05T11:23:35.695Z,7.87
2018-12-05T11:27:42.490Z,50.83
2018-12-05T11:31:49.118Z,33.93
2018-12-05T11:35:56.294Z,18.65
2018-12-05T11:40:03.430Z,23.80
2018-12-05T11:44:09.828Z,20.60
2018-12-05T11:48:16.785Z,21.02
2018-12-05T11:52:23.480Z,22.97
2018-12-05T11:56:34.162Z,20.70
2018-12-05T12:00:45.330Z,19.63
2018-12-05T12:04:52.493Z,20.23
2018-12-05T12:08:59.071Z,21.77
2018-12-05T12:13:08.701Z,19.50
2018-12-05T12:17:15.401Z,16.75
2018-12-05T12:21:21.969Z,15.83
2018-12-05T12:25:28.689Z,17.57
2018-12-05T12:29:35.546Z,15.37
2018-12-05T12:33:42.006Z,11.13
2018-12-05T12:37:48.643Z,14.70
2018-12-05T12:41:57.350Z,10.27
2018-12-05T12:46:04.161Z,13.13
2018-12-05T12:50:11.528Z,8.73
2018-12-05T12:54:18.463Z,15.68
2018-12-05T12:58:24.836Z,10.90
2018-12-05T13:02:31.895Z,11.33
2018-12-05T13:06:38.150Z,13.05
2018-12-05T13:10:44.760Z,9.20
2018-12-05T13:14:51.378Z,11.35
2018-12-05T13:18:57.987Z,10.55
2018-12-05T13:23:04.995Z,13.50
2018-12-05T13:27:11.703Z,11.33
2018-12-05T13:31:18.734Z,11.67
2018-12-05T13:35:31.594Z,10.88
2018-12-05T13:39:38.344Z,9.40
2018-12-05T13:43:44.477Z,9.65
2018-12-05T13:47:51.579Z,11.53
2018-12-05T13:51:58.152Z,12.93
2018-12-05T13:56:04.499Z,8.80
2018-12-05T14:00:11.006Z,10.40
2018-12-05T14:04:18.390Z,10.47
2018-12-05T14:08:25.409Z,10.53
2018-12-05T14:12:36.071Z,12.28
2018-12-05T14:16:42.818Z,9.28
2018-12-05T14:20:49.774Z,10.70
2018-12-05T14:24:56.566Z,13.20
2018-12-05T14:29:04.598Z,11.28
2018-12-05T14:33:11.345Z,10.05
2018-12-05T14:37:18.679Z,11.57
2018-12-05T14:41:25.931Z,11.63
2018-12-05T14:45:32.288Z,10.63
2018-12-05T14:49:39.653Z,59.98
2018-12-05T14:53:46.784Z,30.20
2018-12-05T14:57:53.453Z,32.93
2018-12-05T15:02:00.183Z,31.17
2018-12-05T15:06:06.575Z,35.35
2018-12-05T15:10:13.569Z,35.13
2018-12-05T15:14:19.745Z,29.73
2018-12-05T15:18:26.015Z,27.70
2018-12-05T15:22:34.248Z,29.50
2018-12-05T15:26:42.990Z,25.10
2018-12-05T15:30:50.342Z,22.97
2018-12-05T15:34:57.203Z,25.60
2018-12-05T15:39:04.264Z,25.60
2018-12-05T15:43:11.802Z,19.90
2018-12-05T15:47:18.844Z,27.53
2018-12-05T15:51:26.388Z,22.10
2018-12-05T15:55:33.255Z,29.07
2018-12-05T15:59:39.710Z,22.27
2018-12-05T16:03:46.412Z,20.60
2018-12-05T16:07:52.571Z,23.10
2018-12-05T16:11:59.342Z,22.50
2018-12-05T16:16:06.191Z,19.13
2018-12-05T16:20:12.551Z,20.52
2018-12-05T16:24:19.706Z,22.67
2018-12-05T16:28:25.974Z,16.90
2018-12-05T16:32:32.507Z,16.10
2018-12-05T16:36:39.738Z,16.80
2018-12-05T16:40:46.354Z,17.60
2018-12-05T16:44:53.342Z,14.63
2018-12-05T16:48:59.976Z,14.93
2018-12-05T16:53:06.460Z,17.07
2018-12-05T16:57:13.672Z,13.50
2018-12-05T17:01:20.528Z,13.87
2018-12-05T17:05:27.701Z,14.77
2018-12-05T17:09:33.888Z,15.17
2018-12-05T17:13:44.492Z,15.87
2018-12-05T17:17:51.691Z,13.25
2018-12-05T17:21:58.300Z,16.90
2018-12-05T17:26:04.691Z,12.80
2018-12-05T17:30:11.410Z,14.00
2018-12-05T17:34:18.063Z,14.47
2018-12-05T17:38:24.317Z,19.37
2018-12-05T17:42:30.847Z,13.43
2018-12-05T17:46:37.077Z,14.55
2018-12-05T17:50:43.747Z,14.23
2018-12-05T17:54:50.634Z,14.37
2018-12-05T17:58:57.548Z,13.20
2018-12-05T18:03:04.183Z,16.70
2018-12-05T18:07:10.469Z,15.00
2018-12-05T18:11:16.870Z,15.33
2018-12-05T18:15:23.666Z,13.70
2018-12-05T18:19:30.566Z,13.57
2018-12-05T18:23:37.523Z,12.73
2018-12-05T18:27:44.127Z,13.77
2018-12-05T18:31:51.226Z,11.28
2018-12-05T18:35:58.113Z,12.43
2018-12-05T18:40:05.660Z,13.87
2018-12-05T18:44:13.098Z,11.37
2018-12-05T18:48:19.903Z,9.87
2018-12-05T18:52:26.727Z,9.70
2018-12-05T18:56:33.533Z,9.53
2018-12-05T19:00:40.728Z,10.10
2018-12-05T19:04:53.227Z,8.70
2018-12-05T19:09:00.170Z,8.98
2018-12-05T19:13:07.231Z,10.40
2018-12-05T19:17:13.488Z,9.33
2018-12-05T19:21:20.439Z,9.80
2018-12-05T19:25:27.004Z,9.43
2018-12-05T19:29:34.151Z,8.10
2018-12-05T19:33:42.013Z,7.97
2018-12-05T19:37:48.741Z,9.35
2018-12-05T19:41:55.509Z,7.10
2018-12-05T19:46:02.260Z,6.77
2018-12-05T19:50:08.705Z,7.00
2018-12-05T19:54:15.669Z,6.78
2018-12-05T19:58:22.551Z,8.00
2018-12-05T20:02:29.137Z,5.60
2018-12-05T20:06:36.842Z,7.53
2018-12-05T20:10:44.313Z,6.60
2018-12-05T20:14:51.199Z,6.63
2018-12-05T20:18:58.327Z,6.60
2018-12-05T20:23:05.052Z,5.37
2018-12-05T20:27:11.596Z,5.13
2018-12-05T20:31:18.385Z,5.90
2018-12-05T20:35:25.174Z,5.40
2018-12-05T20:39:32.474Z,5.37
2018-12-05T20:43:39.350Z,12.03
2018-12-05T20:47:45.804Z,9.30
2018-12-05T20:51:52.978Z,9.43
2018-12-05T20:55:59.526Z,17.70
2018-12-05T21:00:07.082Z,9.40
2018-12-05T21:04:14.048Z,8.60
2018-12-05T21:08:19.968Z,4.63
2018-12-05T21:12:26.630Z,3.90
2018-12-05T21:16:33.204Z,8.70
2018-12-05T21:20:40.091Z,5.58
2018-12-05T21:24:47.040Z,4.20
2018-12-05T21:28:53.896Z,3.12
2018-12-05T21:33:02.121Z,7.10
2018-12-05T21:37:09.322Z,3.80
2018-12-05T21:41:16.362Z,3.73
2018-12-05T21:45:22.828Z,4.57
2018-12-05T21:49:29.704Z,24.13
2018-12-05T21:53:37.268Z,122.20
2018-12-05T21:57:44.090Z,13.13
2018-12-05T22:01:50.256Z,15.65
2018-12-05T22:05:57.144Z,12.40
2018-12-05T22:10:03.718Z,15.23
2018-12-05T22:14:10.258Z,7.97
2018-12-05T22:18:16.602Z,23.23
2018-12-05T22:22:23.311Z,169.87
2018-12-05T22:26:29.732Z,60.98
2018-12-05T22:30:36.668Z,28.30
2018-12-05T22:34:43.670Z,22.50
2018-12-05T22:38:50.046Z,22.00
2018-12-05T22:42:58.075Z,20.80
2018-12-05T22:47:05.874Z,23.30
2018-12-05T22:51:12.753Z,13.20
2018-12-05T22:55:19.289Z,9.37
2018-12-05T22:59:26.036Z,7.55
2018-12-05T23:03:32.676Z,6.70
2018-12-05T23:07:39.463Z,11.57
2018-12-05T23:11:46.031Z,5.72
2018-12-05T23:15:52.807Z,9.20
2018-12-05T23:19:59.481Z,9.78
2018-12-05T23:24:06.137Z,6.33
2018-12-05T23:28:13.218Z,7.80
2018-12-05T23:32:19.845Z,6.47
2018-12-05T23:36:26.362Z,7.17
2018-12-05T23:40:33.243Z,7.63
2018-12-05T23:44:40.768Z,16.50
2018-12-05T23:48:47.866Z,7.90
2018-12-05T23:52:54.632Z,11.80
2018-12-05T23:57:01.722Z,12.27
